sensor_id;sensor_type;location;lat;lon;timestamp;P1;durP1;ratioP1;P2;durP2;ratioP2
65769;SDS011;52512;47.650;8.578;2023-05-16T00:00:10;3.83;;;2.85;;
65769;SDS011;52512;47.650;8.578;2023-05-16T00:02:37;4.53;;;3.65;;
65769;SDS011;52512;47.650;8.578;2023-05-16T00:05:03;4.60;;;3.05;;
65769;SDS011;52512;47.650;8.578;2023-05-16T00:07:32;6.53;;;3.25;;
65769;SDS011;52512;47.650;8.578;2023-05-16T00:09:59;4.88;;;3.40;;
65769;SDS011;52512;47.650;8.578;2023-05-16T00:12:25;2.65;;;2.45;;
65769;SDS011;52512;47.650;8.578;2023-05-16T00:14:51;5.88;;;4.05;;
65769;SDS011;52512;47.650;8.578;2023-05-16T00:17:17;8.17;;;3.23;;
65769;SDS011;52512;47.650;8.578;2023-05-16T00:19:45;2.75;;;2.55;;
65769;SDS011;52512;47.650;8.578;2023-05-16T00:22:14;5.30;;;4.07;;
65769;SDS011;52512;47.650;8.578;2023-05-16T00:24:40;16.17;;;4.50;;
65769;SDS011;52512;47.650;8.578;2023-05-16T00:27:06;9.10;;;3.47;;
65769;SDS011;52512;47.650;8.578;2023-05-16T00:29:33;3.60;;;3.20;;
65769;SDS011;52512;47.650;8.578;2023-05-16T00:31:59;9.45;;;4.15;;
65769;SDS011;52512;47.650;8.578;2023-05-16T00:34:25;4.27;;;3.50;;
65769;SDS011;52512;47.650;8.578;2023-05-16T00:36:51;7.23;;;3.13;;
65769;SDS011;52512;47.650;8.578;2023-05-16T00:39:17;4.93;;;3.20;;
65769;SDS011;52512;47.650;8.578;2023-05-16T00:41:43;3.03;;;2.73;;
65769;SDS011;52512;47.650;8.578;2023-05-16T00:44:09;7.38;;;3.33;;
65769;SDS011;52512;47.650;8.578;2023-05-16T00:46:35;3.20;;;2.90;;
65769;SDS011;52512;47.650;8.578;2023-05-16T00:49:01;3.80;;;3.50;;
65769;SDS011;52512;47.650;8.578;2023-05-16T00:51:27;4.15;;;3.58;;
65769;SDS011;52512;47.650;8.578;2023-05-16T00:53:53;4.23;;;3.20;;
65769;SDS011;52512;47.650;8.578;2023-05-16T00:56:20;5.70;;;4.03;;
65769;SDS011;52512;47.650;8.578;2023-05-16T00:58:46;8.33;;;4.20;;
65769;SDS011;52512;47.650;8.578;2023-05-16T01:01:12;3.80;;;2.75;;
65769;SDS011;52512;47.650;8.578;2023-05-16T01:03:38;10.93;;;3.17;;
65769;SDS011;52512;47.650;8.578;2023-05-16T01:06:04;2.90;;;2.70;;
65769;SDS011;52512;47.650;8.578;2023-05-16T01:08:30;3.50;;;3.08;;
65769;SDS011;52512;47.650;8.578;2023-05-16T01:11:01;7.75;;;3.40;;
65769;SDS011;52512;47.650;8.578;2023-05-16T01:16:39;4.70;;;2.55;;
65769;SDS011;52512;47.650;8.578;2023-05-16T01:19:19;4.10;;;3.35;;
65769;SDS011;52512;47.650;8.578;2023-05-16T01:22:10;4.18;;;3.30;;
65769;SDS011;52512;47.650;8.578;2023-05-16T01:27:25;5.07;;;3.45;;
65769;SDS011;52512;47.650;8.578;2023-05-16T01:29:55;6.78;;;3.50;;
65769;SDS011;52512;47.650;8.578;2023-05-16T01:32:21;4.50;;;3.42;;
65769;SDS011;52512;47.650;8.578;2023-05-16T01:34:48;5.57;;;4.10;;
65769;SDS011;52512;47.650;8.578;2023-05-16T01:37:19;6.25;;;2.90;;
65769;SDS011;52512;47.650;8.578;2023-05-16T01:39:56;3.83;;;3.08;;
65769;SDS011;52512;47.650;8.578;2023-05-16T01:42:31;5.75;;;3.10;;
65769;SDS011;52512;47.650;8.578;2023-05-16T01:45:15;2.95;;;2.65;;
65769;SDS011;52512;47.650;8.578;2023-05-16T01:47:50;7.00;;;3.50;;
65769;SDS011;52512;47.650;8.578;2023-05-16T01:50:20;4.18;;;3.78;;
65769;SDS011;52512;47.650;8.578;2023-05-16T01:52:55;8.50;;;4.25;;
65769;SDS011;52512;47.650;8.578;2023-05-16T01:58:20;4.68;;;3.30;;
65769;SDS011;52512;47.650;8.578;2023-05-16T02:00:47;7.45;;;3.50;;
65769;SDS011;52512;47.650;8.578;2023-05-16T02:03:13;5.17;;;4.03;;
65769;SDS011;52512;47.650;8.578;2023-05-16T02:05:39;5.10;;;2.90;;
65769;SDS011;52512;47.650;8.578;2023-05-16T02:08:04;3.60;;;3.30;;
65769;SDS011;52512;47.650;8.578;2023-05-16T02:10:30;8.27;;;3.80;;
65769;SDS011;52512;47.650;8.578;2023-05-16T02:12:56;12.50;;;4.57;;
65769;SDS011;52512;47.650;8.578;2023-05-16T02:15:22;5.53;;;2.90;;
65769;SDS011;52512;47.650;8.578;2023-05-16T02:17:48;5.40;;;3.00;;
65769;SDS011;52512;47.650;8.578;2023-05-16T02:20:13;8.47;;;3.40;;
65769;SDS011;52512;47.650;8.578;2023-05-16T02:22:39;4.07;;;3.47;;
65769;SDS011;52512;47.650;8.578;2023-05-16T02:25:06;4.38;;;3.67;;
65769;SDS011;52512;47.650;8.578;2023-05-16T02:27:33;5.20;;;3.38;;
65769;SDS011;52512;47.650;8.578;2023-05-16T02:29:58;3.60;;;3.10;;
65769;SDS011;52512;47.650;8.578;2023-05-16T02:32:24;4.30;;;2.53;;
65769;SDS011;52512;47.650;8.578;2023-05-16T02:34:50;5.57;;;3.40;;
65769;SDS011;52512;47.650;8.578;2023-05-16T02:37:16;8.70;;;4.23;;
65769;SDS011;52512;47.650;8.578;2023-05-16T02:39:41;2.70;;;2.50;;
65769;SDS011;52512;47.650;8.578;2023-05-16T02:42:07;6.33;;;3.87;;
65769;SDS011;52512;47.650;8.578;2023-05-16T02:44:33;10.93;;;4.90;;
65769;SDS011;52512;47.650;8.578;2023-05-16T02:46:58;5.67;;;3.47;;
65769;SDS011;52512;47.650;8.578;2023-05-16T02:49:24;3.40;;;3.10;;
65769;SDS011;52512;47.650;8.578;2023-05-16T02:51:50;4.60;;;3.25;;
65769;SDS011;52512;47.650;8.578;2023-05-16T02:54:16;4.43;;;3.60;;
65769;SDS011;52512;47.650;8.578;2023-05-16T02:56:42;3.40;;;3.10;;
65769;SDS011;52512;47.650;8.578;2023-05-16T02:59:08;5.45;;;3.78;;
65769;SDS011;52512;47.650;8.578;2023-05-16T03:01:35;9.70;;;4.43;;
65769;SDS011;52512;47.650;8.578;2023-05-16T03:04:01;30.43;;;4.60;;
65769;SDS011;52512;47.650;8.578;2023-05-16T03:06:26;9.03;;;4.87;;
65769;SDS011;52512;47.650;8.578;2023-05-16T03:08:52;4.17;;;3.77;;
65769;SDS011;52512;47.650;8.578;2023-05-16T03:11:17;5.87;;;3.70;;
65769;SDS011;52512;47.650;8.578;2023-05-16T03:13:47;5.20;;;3.83;;
65769;SDS011;52512;47.650;8.578;2023-05-16T03:16:13;4.32;;;3.35;;
65769;SDS011;52512;47.650;8.578;2023-05-16T03:18:39;5.05;;;3.13;;
65769;SDS011;52512;47.650;8.578;2023-05-16T03:21:05;4.80;;;3.43;;
65769;SDS011;52512;47.650;8.578;2023-05-16T03:23:31;4.17;;;3.57;;
65769;SDS011;52512;47.650;8.578;2023-05-16T03:25:57;3.67;;;3.37;;
65769;SDS011;52512;47.650;8.578;2023-05-16T03:28:22;7.40;;;4.20;;
65769;SDS011;52512;47.650;8.578;2023-05-16T03:30:48;4.70;;;4.00;;
65769;SDS011;52512;47.650;8.578;2023-05-16T03:33:14;7.33;;;3.03;;
65769;SDS011;52512;47.650;8.578;2023-05-16T03:35:40;4.88;;;4.05;;
65769;SDS011;52512;47.650;8.578;2023-05-16T03:38:06;5.30;;;3.87;;
65769;SDS011;52512;47.650;8.578;2023-05-16T03:40:31;5.23;;;3.93;;
65769;SDS011;52512;47.650;8.578;2023-05-16T03:42:57;6.60;;;4.47;;
65769;SDS011;52512;47.650;8.578;2023-05-16T03:45:23;7.30;;;4.83;;
65769;SDS011;52512;47.650;8.578;2023-05-16T03:47:48;9.23;;;4.57;;
65769;SDS011;52512;47.650;8.578;2023-05-16T03:50:14;5.80;;;4.10;;
65769;SDS011;52512;47.650;8.578;2023-05-16T03:52:40;5.03;;;4.00;;
65769;SDS011;52512;47.650;8.578;2023-05-16T03:55:06;10.40;;;4.37;;
65769;SDS011;52512;47.650;8.578;2023-05-16T03:57:33;5.25;;;4.25;;
65769;SDS011;52512;47.650;8.578;2023-05-16T04:00:00;12.70;;;5.25;;
65769;SDS011;52512;47.650;8.578;2023-05-16T04:02:26;6.33;;;4.40;;
65769;SDS011;52512;47.650;8.578;2023-05-16T04:04:51;8.20;;;5.30;;
65769;SDS011;52512;47.650;8.578;2023-05-16T04:07:17;5.80;;;3.93;;
65769;SDS011;52512;47.650;8.578;2023-05-16T04:09:42;5.90;;;3.63;;
65769;SDS011;52512;47.650;8.578;2023-05-16T04:12:09;7.45;;;4.50;;
65769;SDS011;52512;47.650;8.578;2023-05-16T04:14:34;7.50;;;5.30;;
65769;SDS011;52512;47.650;8.578;2023-05-16T04:17:00;6.47;;;4.47;;
65769;SDS011;52512;47.650;8.578;2023-05-16T04:19:26;8.27;;;4.50;;
65769;SDS011;52512;47.650;8.578;2023-05-16T04:21:51;11.03;;;6.03;;
65769;SDS011;52512;47.650;8.578;2023-05-16T04:24:17;9.00;;;4.97;;
65769;SDS011;52512;47.650;8.578;2023-05-16T04:26:43;13.50;;;4.77;;
65769;SDS011;52512;47.650;8.578;2023-05-16T04:29:08;6.63;;;4.40;;
65769;SDS011;52512;47.650;8.578;2023-05-16T04:31:35;9.55;;;7.47;;
65769;SDS011;52512;47.650;8.578;2023-05-16T04:34:01;7.93;;;5.33;;
65769;SDS011;52512;47.650;8.578;2023-05-16T04:36:27;14.55;;;4.90;;
65769;SDS011;52512;47.650;8.578;2023-05-16T04:38:55;13.90;;;5.53;;
65769;SDS011;52512;47.650;8.578;2023-05-16T04:41:21;9.20;;;4.88;;
65769;SDS011;52512;47.650;8.578;2023-05-16T04:43:48;13.02;;;5.95;;
65769;SDS011;52512;47.650;8.578;2023-05-16T04:46:13;7.77;;;5.00;;
65769;SDS011;52512;47.650;8.578;2023-05-16T04:48:42;8.02;;;5.22;;
65769;SDS011;52512;47.650;8.578;2023-05-16T04:51:07;5.70;;;4.50;;
65769;SDS011;52512;47.650;8.578;2023-05-16T04:53:33;6.47;;;5.10;;
65769;SDS011;52512;47.650;8.578;2023-05-16T04:55:59;8.67;;;5.30;;
65769;SDS011;52512;47.650;8.578;2023-05-16T04:58:25;6.85;;;4.97;;
65769;SDS011;52512;47.650;8.578;2023-05-16T05:00:51;8.40;;;7.07;;
65769;SDS011;52512;47.650;8.578;2023-05-16T05:03:17;7.60;;;5.23;;
65769;SDS011;52512;47.650;8.578;2023-05-16T05:05:42;9.90;;;5.97;;
65769;SDS011;52512;47.650;8.578;2023-05-16T05:08:08;9.53;;;6.33;;
65769;SDS011;52512;47.650;8.578;2023-05-16T05:10:34;19.37;;;5.07;;
65769;SDS011;52512;47.650;8.578;2023-05-16T05:13:00;6.80;;;5.20;;
65769;SDS011;52512;47.650;8.578;2023-05-16T05:15:27;7.55;;;5.28;;
65769;SDS011;52512;47.650;8.578;2023-05-16T05:17:52;8.10;;;5.00;;
65769;SDS011;52512;47.650;8.578;2023-05-16T05:20:18;9.93;;;6.20;;
65769;SDS011;52512;47.650;8.578;2023-05-16T05:22:44;6.10;;;5.13;;
65769;SDS011;52512;47.650;8.578;2023-05-16T05:25:09;15.47;;;5.37;;
65769;SDS011;52512;47.650;8.578;2023-05-16T05:27:35;9.57;;;6.17;;
65769;SDS011;52512;47.650;8.578;2023-05-16T05:30:01;13.50;;;6.43;;
65769;SDS011;52512;47.650;8.578;2023-05-16T05:32:27;10.00;;;5.80;;
65769;SDS011;52512;47.650;8.578;2023-05-16T05:34:53;9.73;;;5.97;;
65769;SDS011;52512;47.650;8.578;2023-05-16T05:37:19;7.50;;;5.37;;
65769;SDS011;52512;47.650;8.578;2023-05-16T05:39:45;6.70;;;4.70;;
65769;SDS011;52512;47.650;8.578;2023-05-16T05:42:10;9.37;;;5.90;;
65769;SDS011;52512;47.650;8.578;2023-05-16T05:44:36;5.30;;;4.80;;
65769;SDS011;52512;47.650;8.578;2023-05-16T05:47:03;7.60;;;5.40;;
65769;SDS011;52512;47.650;8.578;2023-05-16T05:49:30;6.25;;;4.80;;
65769;SDS011;52512;47.650;8.578;2023-05-16T05:51:56;8.30;;;5.30;;
65769;SDS011;52512;47.650;8.578;2023-05-16T05:54:22;7.97;;;6.10;;
65769;SDS011;52512;47.650;8.578;2023-05-16T05:56:48;6.95;;;4.40;;
65769;SDS011;52512;47.650;8.578;2023-05-16T05:59:14;10.90;;;6.40;;
65769;SDS011;52512;47.650;8.578;2023-05-16T06:01:40;8.52;;;5.45;;
65769;SDS011;52512;47.650;8.578;2023-05-16T06:04:06;7.68;;;5.05;;
65769;SDS011;52512;47.650;8.578;2023-05-16T06:06:32;9.07;;;6.10;;
65769;SDS011;52512;47.650;8.578;2023-05-16T06:08:57;6.70;;;5.37;;
65769;SDS011;52512;47.650;8.578;2023-05-16T06:11:23;8.70;;;6.00;;
65769;SDS011;52512;47.650;8.578;2023-05-16T06:13:52;8.30;;;5.28;;
65769;SDS011;52512;47.650;8.578;2023-05-16T06:16:17;8.03;;;6.20;;
65769;SDS011;52512;47.650;8.578;2023-05-16T06:18:43;13.00;;;5.35;;
65769;SDS011;52512;47.650;8.578;2023-05-16T06:21:09;9.03;;;5.50;;
65769;SDS011;52512;47.650;8.578;2023-05-16T06:23:35;9.80;;;5.80;;
65769;SDS011;52512;47.650;8.578;2023-05-16T06:26:02;12.13;;;7.60;;
65769;SDS011;52512;47.650;8.578;2023-05-16T06:28:28;10.07;;;6.50;;
65769;SDS011;52512;47.650;8.578;2023-05-16T06:30:54;10.45;;;5.97;;
65769;SDS011;52512;47.650;8.578;2023-05-16T06:33:19;11.17;;;7.23;;
65769;SDS011;52512;47.650;8.578;2023-05-16T06:35:45;9.73;;;6.80;;
65769;SDS011;52512;47.650;8.578;2023-05-16T06:38:12;25.60;;;7.85;;
65769;SDS011;52512;47.650;8.578;2023-05-16T06:40:38;11.82;;;7.60;;
65769;SDS011;52512;47.650;8.578;2023-05-16T06:43:05;19.83;;;6.63;;
65769;SDS011;52512;47.650;8.578;2023-05-16T06:45:31;11.80;;;7.10;;
65769;SDS011;52512;47.650;8.578;2023-05-16T06:47:59;15.60;;;8.00;;
65769;SDS011;52512;47.650;8.578;2023-05-16T06:50:26;14.20;;;8.00;;
65769;SDS011;52512;47.650;8.578;2023-05-16T06:52:52;15.52;;;8.75;;
65769;SDS011;52512;47.650;8.578;2023-05-16T06:55:17;15.60;;;9.40;;
65769;SDS011;52512;47.650;8.578;2023-05-16T06:57:43;28.53;;;11.40;;
65769;SDS011;52512;47.650;8.578;2023-05-16T07:00:09;20.17;;;10.30;;
65769;SDS011;52512;47.650;8.578;2023-05-16T07:02:35;36.30;;;14.77;;
65769;SDS011;52512;47.650;8.578;2023-05-16T07:05:00;34.43;;;16.67;;
65769;SDS011;52512;47.650;8.578;2023-05-16T07:07:26;37.30;;;16.40;;
65769;SDS011;52512;47.650;8.578;2023-05-16T07:09:52;42.30;;;20.43;;
65769;SDS011;52512;47.650;8.578;2023-05-16T07:12:18;41.93;;;18.83;;
65769;SDS011;52512;47.650;8.578;2023-05-16T07:14:44;46.67;;;17.70;;
65769;SDS011;52512;47.650;8.578;2023-05-16T07:17:10;45.50;;;16.70;;
65769;SDS011;52512;47.650;8.578;2023-05-16T07:19:36;36.73;;;15.37;;
65769;SDS011;52512;47.650;8.578;2023-05-16T07:22:02;33.47;;;16.40;;
65769;SDS011;52512;47.650;8.578;2023-05-16T07:24:28;41.00;;;17.47;;
65769;SDS011;52512;47.650;8.578;2023-05-16T07:26:53;41.47;;;17.10;;
65769;SDS011;52512;47.650;8.578;2023-05-16T07:29:19;42.37;;;18.07;;
65769;SDS011;52512;47.650;8.578;2023-05-16T07:31:44;37.43;;;17.70;;
65769;SDS011;52512;47.650;8.578;2023-05-16T07:34:10;40.30;;;17.47;;
65769;SDS011;52512;47.650;8.578;2023-05-16T07:36:36;45.77;;;19.10;;
65769;SDS011;52512;47.650;8.578;2023-05-16T07:39:02;35.30;;;17.38;;
65769;SDS011;52512;47.650;8.578;2023-05-16T07:41:28;58.30;;;19.87;;
65769;SDS011;52512;47.650;8.578;2023-05-16T07:43:54;37.83;;;17.20;;
65769;SDS011;52512;47.650;8.578;2023-05-16T07:46:20;37.87;;;16.80;;
65769;SDS011;52512;47.650;8.578;2023-05-16T07:48:46;51.83;;;21.42;;
65769;SDS011;52512;47.650;8.578;2023-05-16T07:51:12;44.23;;;19.70;;
65769;SDS011;52512;47.650;8.578;2023-05-16T07:53:37;44.47;;;20.63;;
65769;SDS011;52512;47.650;8.578;2023-05-16T07:56:03;44.20;;;18.00;;
65769;SDS011;52512;47.650;8.578;2023-05-16T07:58:30;43.95;;;17.38;;
65769;SDS011;52512;47.650;8.578;2023-05-16T08:00:55;46.37;;;19.50;;
65769;SDS011;52512;47.650;8.578;2023-05-16T08:03:21;48.73;;;18.27;;
65769;SDS011;52512;47.650;8.578;2023-05-16T08:05:47;37.33;;;16.60;;
65769;SDS011;52512;47.650;8.578;2023-05-16T08:08:13;39.95;;;18.40;;
65769;SDS011;52512;47.650;8.578;2023-05-16T08:10:38;34.93;;;15.97;;
65769;SDS011;52512;47.650;8.578;2023-05-16T08:13:04;51.07;;;18.40;;
65769;SDS011;52512;47.650;8.578;2023-05-16T08:15:30;42.33;;;17.47;;
65769;SDS011;52512;47.650;8.578;2023-05-16T08:17:56;38.80;;;18.03;;
65769;SDS011;52512;47.650;8.578;2023-05-16T08:20:23;42.72;;;17.83;;
65769;SDS011;52512;47.650;8.578;2023-05-16T08:22:49;48.40;;;17.25;;
65769;SDS011;52512;47.650;8.578;2023-05-16T08:25:16;35.90;;;17.48;;
65769;SDS011;52512;47.650;8.578;2023-05-16T08:27:41;39.70;;;17.93;;
65769;SDS011;52512;47.650;8.578;2023-05-16T08:30:09;40.90;;;17.10;;
65769;SDS011;52512;47.650;8.578;2023-05-16T08:32:36;42.83;;;16.98;;
65769;SDS011;52512;47.650;8.578;2023-05-16T08:35:02;38.73;;;17.30;;
65769;SDS011;52512;47.650;8.578;2023-05-16T08:37:27;38.80;;;15.90;;
65769;SDS011;52512;47.650;8.578;2023-05-16T08:39:53;34.93;;;17.43;;
65769;SDS011;52512;47.650;8.578;2023-05-16T08:42:19;30.87;;;16.40;;
65769;SDS011;52512;47.650;8.578;2023-05-16T08:44:44;40.07;;;18.37;;
65769;SDS011;52512;47.650;8.578;2023-05-16T08:47:11;39.37;;;17.27;;
65769;SDS011;52512;47.650;8.578;2023-05-16T08:49:41;34.42;;;14.93;;
65769;SDS011;52512;47.650;8.578;2023-05-16T08:52:10;36.28;;;16.10;;
65769;SDS011;52512;47.650;8.578;2023-05-16T08:54:37;25.38;;;13.15;;
65769;SDS011;52512;47.650;8.578;2023-05-16T08:57:05;31.92;;;15.80;;
65769;SDS011;52512;47.650;8.578;2023-05-16T08:59:32;31.53;;;16.10;;
65769;SDS011;52512;47.650;8.578;2023-05-16T09:01:58;34.10;;;14.00;;
65769;SDS011;52512;47.650;8.578;2023-05-16T09:04:24;29.97;;;13.23;;
65769;SDS011;52512;47.650;8.578;2023-05-16T09:06:51;32.08;;;13.65;;
65769;SDS011;52512;47.650;8.578;2023-05-16T09:09:17;27.10;;;13.83;;
65769;SDS011;52512;47.650;8.578;2023-05-16T09:11:43;37.42;;;14.27;;
65769;SDS011;52512;47.650;8.578;2023-05-16T09:14:09;25.67;;;12.87;;
65769;SDS011;52512;47.650;8.578;2023-05-16T09:16:35;26.03;;;12.90;;
65769;SDS011;52512;47.650;8.578;2023-05-16T09:19:01;25.23;;;13.03;;
65769;SDS011;52512;47.650;8.578;2023-05-16T09:21:29;21.93;;;11.43;;
65769;SDS011;52512;47.650;8.578;2023-05-16T09:24:01;24.33;;;12.40;;
65769;SDS011;52512;47.650;8.578;2023-05-16T09:26:28;23.47;;;11.40;;
65769;SDS011;52512;47.650;8.578;2023-05-16T09:28:55;30.47;;;12.80;;
65769;SDS011;52512;47.650;8.578;2023-05-16T09:31:21;21.77;;;10.73;;
65769;SDS011;52512;47.650;8.578;2023-05-16T09:33:59;28.33;;;11.83;;
65769;SDS011;52512;47.650;8.578;2023-05-16T09:36:25;19.50;;;10.75;;
65769;SDS011;52512;47.650;8.578;2023-05-16T09:38:51;24.50;;;11.65;;
65769;SDS011;52512;47.650;8.578;2023-05-16T09:41:17;31.83;;;11.93;;
65769;SDS011;52512;47.650;8.578;2023-05-16T09:43:43;23.60;;;10.27;;
65769;SDS011;52512;47.650;8.578;2023-05-16T09:46:15;18.50;;;11.23;;
65769;SDS011;52512;47.650;8.578;2023-05-16T09:48:47;24.23;;;12.70;;
65769;SDS011;52512;47.650;8.578;2023-05-16T09:51:13;24.43;;;11.37;;
65769;SDS011;52512;47.650;8.578;2023-05-16T09:53:39;21.05;;;10.90;;
65769;SDS011;52512;47.650;8.578;2023-05-16T09:56:12;21.33;;;10.48;;
65769;SDS011;52512;47.650;8.578;2023-05-16T09:58:39;26.60;;;11.13;;
65769;SDS011;52512;47.650;8.578;2023-05-16T10:01:06;22.37;;;10.03;;
65769;SDS011;52512;47.650;8.578;2023-05-16T10:03:34;24.67;;;11.95;;
65769;SDS011;52512;47.650;8.578;2023-05-16T10:06:00;24.37;;;10.70;;
65769;SDS011;52512;47.650;8.578;2023-05-16T10:08:31;15.65;;;9.55;;
65769;SDS011;52512;47.650;8.578;2023-05-16T10:11:01;16.07;;;8.07;;
65769;SDS011;52512;47.650;8.578;2023-05-16T10:13:29;19.13;;;8.40;;
65769;SDS011;52512;47.650;8.578;2023-05-16T10:15:57;18.40;;;8.67;;
65769;SDS011;52512;47.650;8.578;2023-05-16T10:18:27;8.67;;;5.23;;
65769;SDS011;52512;47.650;8.578;2023-05-16T10:20:56;21.50;;;5.47;;
65769;SDS011;52512;47.650;8.578;2023-05-16T10:23:30;9.70;;;4.87;;
65769;SDS011;52512;47.650;8.578;2023-05-16T10:25:59;6.03;;;4.20;;
65769;SDS011;52512;47.650;8.578;2023-05-16T10:28:27;5.37;;;3.80;;
65769;SDS011;52512;47.650;8.578;2023-05-16T10:30:53;7.67;;;4.10;;
65769;SDS011;52512;47.650;8.578;2023-05-16T10:33:20;5.13;;;3.90;;
65769;SDS011;52512;47.650;8.578;2023-05-16T10:35:46;5.20;;;3.50;;
65769;SDS011;52512;47.650;8.578;2023-05-16T10:38:13;7.80;;;4.73;;
65769;SDS011;52512;47.650;8.578;2023-05-16T10:40:41;5.28;;;3.70;;
65769;SDS011;52512;47.650;8.578;2023-05-16T10:43:07;11.20;;;4.07;;
65769;SDS011;52512;47.650;8.578;2023-05-16T10:45:34;8.53;;;5.00;;
65769;SDS011;52512;47.650;8.578;2023-05-16T10:48:06;4.70;;;3.63;;
65769;SDS011;52512;47.650;8.578;2023-05-16T10:50:34;5.70;;;4.40;;
65769;SDS011;52512;47.650;8.578;2023-05-16T10:55:49;13.97;;;6.87;;
65769;SDS011;52512;47.650;8.578;2023-05-16T11:06:29;14.53;;;6.70;;
65769;SDS011;52512;47.650;8.578;2023-05-16T11:11:43;8.83;;;6.13;;
65769;SDS011;52512;47.650;8.578;2023-05-16T11:20:23;10.57;;;6.13;;
65769;SDS011;52512;47.650;8.578;2023-05-16T11:22:24;12.87;;;6.60;;
65769;SDS011;52512;47.650;8.578;2023-05-16T11:25:02;6.47;;;5.00;;
65769;SDS011;52512;47.650;8.578;2023-05-16T11:27:46;6.53;;;4.63;;
65769;SDS011;52512;47.650;8.578;2023-05-16T11:30:12;10.40;;;4.70;;
65769;SDS011;52512;47.650;8.578;2023-05-16T11:32:40;14.53;;;5.70;;
65769;SDS011;52512;47.650;8.578;2023-05-16T11:35:08;8.10;;;4.93;;
65769;SDS011;52512;47.650;8.578;2023-05-16T11:37:35;12.07;;;6.20;;
65769;SDS011;52512;47.650;8.578;2023-05-16T11:40:03;10.77;;;6.80;;
65769;SDS011;52512;47.650;8.578;2023-05-16T11:42:39;10.90;;;6.97;;
65769;SDS011;52512;47.650;8.578;2023-05-16T11:45:07;12.40;;;6.90;;
65769;SDS011;52512;47.650;8.578;2023-05-16T11:47:40;11.13;;;7.80;;
65769;SDS011;52512;47.650;8.578;2023-05-16T11:50:12;13.73;;;7.17;;
65769;SDS011;52512;47.650;8.578;2023-05-16T11:52:41;13.13;;;5.80;;
65769;SDS011;52512;47.650;8.578;2023-05-16T11:55:08;9.30;;;6.23;;
65769;SDS011;52512;47.650;8.578;2023-05-16T11:57:37;10.00;;;6.60;;
65769;SDS011;52512;47.650;8.578;2023-05-16T12:00:15;19.00;;;6.73;;
65769;SDS011;52512;47.650;8.578;2023-05-16T12:02:43;18.27;;;7.80;;
65769;SDS011;52512;47.650;8.578;2023-05-16T12:05:11;10.83;;;6.73;;
65769;SDS011;52512;47.650;8.578;2023-05-16T12:07:37;11.57;;;6.80;;
65769;SDS011;52512;47.650;8.578;2023-05-16T12:10:04;12.87;;;7.70;;
65769;SDS011;52512;47.650;8.578;2023-05-16T12:12:31;12.30;;;7.37;;
65769;SDS011;52512;47.650;8.578;2023-05-16T12:14:57;15.52;;;7.78;;
65769;SDS011;52512;47.650;8.578;2023-05-16T12:17:23;10.83;;;6.90;;
65769;SDS011;52512;47.650;8.578;2023-05-16T12:19:49;20.23;;;8.00;;
65769;SDS011;52512;47.650;8.578;2023-05-16T12:22:16;16.90;;;8.40;;
65769;SDS011;52512;47.650;8.578;2023-05-16T12:24:44;12.30;;;7.63;;
65769;SDS011;52512;47.650;8.578;2023-05-16T12:27:10;14.40;;;8.37;;
65769;SDS011;52512;47.650;8.578;2023-05-16T12:29:36;21.00;;;8.13;;
65769;SDS011;52512;47.650;8.578;2023-05-16T12:32:03;16.03;;;8.80;;
65769;SDS011;52512;47.650;8.578;2023-05-16T12:34:31;14.73;;;7.37;;
65769;SDS011;52512;47.650;8.578;2023-05-16T12:36:57;15.60;;;8.33;;
65769;SDS011;52512;47.650;8.578;2023-05-16T12:39:25;16.23;;;8.87;;
65769;SDS011;52512;47.650;8.578;2023-05-16T12:41:50;14.10;;;8.23;;
65769;SDS011;52512;47.650;8.578;2023-05-16T12:44:17;14.37;;;8.00;;
65769;SDS011;52512;47.650;8.578;2023-05-16T12:46:44;14.20;;;7.93;;
65769;SDS011;52512;47.650;8.578;2023-05-16T12:49:12;17.52;;;9.27;;
65769;SDS011;52512;47.650;8.578;2023-05-16T12:51:38;17.93;;;10.27;;
65769;SDS011;52512;47.650;8.578;2023-05-16T12:54:08;16.33;;;9.82;;
65769;SDS011;52512;47.650;8.578;2023-05-16T12:56:36;17.33;;;8.40;;
65769;SDS011;52512;47.650;8.578;2023-05-16T12:59:02;23.55;;;8.90;;
65769;SDS011;52512;47.650;8.578;2023-05-16T13:01:28;13.67;;;8.20;;
65769;SDS011;52512;47.650;8.578;2023-05-16T13:03:54;22.90;;;9.80;;
65769;SDS011;52512;47.650;8.578;2023-05-16T13:06:19;17.57;;;8.53;;
65769;SDS011;52512;47.650;8.578;2023-05-16T13:08:45;18.77;;;10.00;;
65769;SDS011;52512;47.650;8.578;2023-05-16T13:11:11;17.00;;;7.70;;
65769;SDS011;52512;47.650;8.578;2023-05-16T13:13:36;12.40;;;7.70;;
65769;SDS011;52512;47.650;8.578;2023-05-16T13:16:02;17.80;;;8.30;;
65769;SDS011;52512;47.650;8.578;2023-05-16T13:18:28;11.33;;;6.73;;
65769;SDS011;52512;47.650;8.578;2023-05-16T13:20:54;14.90;;;7.57;;
65769;SDS011;52512;47.650;8.578;2023-05-16T13:23:20;12.60;;;6.03;;
65769;SDS011;52512;47.650;8.578;2023-05-16T13:25:45;11.20;;;6.77;;
65769;SDS011;52512;47.650;8.578;2023-05-16T13:28:11;9.47;;;6.30;;
65769;SDS011;52512;47.650;8.578;2023-05-16T13:30:37;14.63;;;7.23;;
65769;SDS011;52512;47.650;8.578;2023-05-16T13:33:02;11.60;;;6.10;;
65769;SDS011;52512;47.650;8.578;2023-05-16T13:35:28;8.57;;;5.20;;
65769;SDS011;52512;47.650;8.578;2023-05-16T13:37:54;14.20;;;5.30;;
65769;SDS011;52512;47.650;8.578;2023-05-16T13:40:20;9.27;;;5.47;;
65769;SDS011;52512;47.650;8.578;2023-05-16T13:42:45;8.67;;;5.50;;
65769;SDS011;52512;47.650;8.578;2023-05-16T13:45:11;16.17;;;6.73;;
65769;SDS011;52512;47.650;8.578;2023-05-16T13:47:37;9.90;;;5.73;;
65769;SDS011;52512;47.650;8.578;2023-05-16T13:50:04;9.20;;;5.00;;
65769;SDS011;52512;47.650;8.578;2023-05-16T13:52:33;6.22;;;4.70;;
65769;SDS011;52512;47.650;8.578;2023-05-16T13:54:59;8.67;;;5.07;;
65769;SDS011;52512;47.650;8.578;2023-05-16T13:57:25;7.70;;;5.03;;
65769;SDS011;52512;47.650;8.578;2023-05-16T13:59:51;9.57;;;5.93;;
65769;SDS011;52512;47.650;8.578;2023-05-16T14:02:17;5.70;;;4.57;;
65769;SDS011;52512;47.650;8.578;2023-05-16T14:04:43;14.00;;;5.53;;
65769;SDS011;52512;47.650;8.578;2023-05-16T14:07:09;7.17;;;4.93;;
65769;SDS011;52512;47.650;8.578;2023-05-16T14:09:35;18.30;;;5.60;;
65769;SDS011;52512;47.650;8.578;2023-05-16T14:12:03;10.10;;;5.10;;
65769;SDS011;52512;47.650;8.578;2023-05-16T14:14:31;14.10;;;5.30;;
65769;SDS011;52512;47.650;8.578;2023-05-16T14:16:58;10.17;;;4.90;;
65769;SDS011;52512;47.650;8.578;2023-05-16T14:19:23;7.03;;;4.80;;
65769;SDS011;52512;47.650;8.578;2023-05-16T14:21:49;4.87;;;4.17;;
65769;SDS011;52512;47.650;8.578;2023-05-16T14:24:15;5.73;;;4.43;;
65769;SDS011;52512;47.650;8.578;2023-05-16T14:26:41;9.90;;;4.50;;
65769;SDS011;52512;47.650;8.578;2023-05-16T14:29:06;4.10;;;3.40;;
65769;SDS011;52512;47.650;8.578;2023-05-16T14:31:32;5.07;;;3.33;;
65769;SDS011;52512;47.650;8.578;2023-05-16T14:34:00;7.13;;;3.47;;
65769;SDS011;52512;47.650;8.578;2023-05-16T14:36:26;7.13;;;4.00;;
65769;SDS011;52512;47.650;8.578;2023-05-16T14:38:51;5.23;;;3.00;;
65769;SDS011;52512;47.650;8.578;2023-05-16T14:41:17;4.73;;;3.20;;
65769;SDS011;52512;47.650;8.578;2023-05-16T14:43:43;3.90;;;3.13;;
65769;SDS011;52512;47.650;8.578;2023-05-16T14:46:09;3.00;;;2.50;;
65769;SDS011;52512;47.650;8.578;2023-05-16T14:48:36;3.83;;;2.80;;
65769;SDS011;52512;47.650;8.578;2023-05-16T14:51:01;3.57;;;2.67;;
65769;SDS011;52512;47.650;8.578;2023-05-16T14:53:29;2.87;;;2.40;;
65769;SDS011;52512;47.650;8.578;2023-05-16T14:55:55;2.22;;;2.03;;
65769;SDS011;52512;47.650;8.578;2023-05-16T14:58:21;4.05;;;2.72;;
65769;SDS011;52512;47.650;8.578;2023-05-16T15:00:47;2.57;;;2.37;;
65769;SDS011;52512;47.650;8.578;2023-05-16T15:03:14;6.70;;;3.30;;